sensor_id;sensor_type;location;lat;lon;timestamp;temperature;humidity
7399;DHT22;3740;50.700;7.184;2023-04-06T00:01:02;5.60;99.90
7399;DHT22;3740;50.700;7.184;2023-04-06T00:03:28;5.80;99.90
7399;DHT22;3740;50.700;7.184;2023-04-06T00:05:53;5.70;99.90
7399;DHT22;3740;50.700;7.184;2023-04-06T00:08:19;5.50;99.90
7399;DHT22;3740;50.700;7.184;2023-04-06T00:10:46;5.40;99.90
7399;DHT22;3740;50.700;7.184;2023-04-06T00:13:12;5.30;99.90
7399;DHT22;3740;50.700;7.184;2023-04-06T00:15:37;5.20;99.90
7399;DHT22;3740;50.700;7.184;2023-04-06T00:18:03;5.00;99.90
7399;DHT22;3740;50.700;7.184;2023-04-06T00:20:29;4.90;99.90
7399;DHT22;3740;50.700;7.184;2023-04-06T00:22:54;4.80;99.90
7399;DHT22;3740;50.700;7.184;2023-04-06T00:25:20;4.90;99.90
7399;DHT22;3740;50.700;7.184;2023-04-06T00:27:45;4.80;99.90
7399;DHT22;3740;50.700;7.184;2023-04-06T00:30:11;4.80;99.90
7399;DHT22;3740;50.700;7.184;2023-04-06T00:32:37;4.90;99.90
7399;DHT22;3740;50.700;7.184;2023-04-06T00:35:03;5.20;99.90
7399;DHT22;3740;50.700;7.184;2023-04-06T00:37:29;5.50;99.90
7399;DHT22;3740;50.700;7.184;2023-04-06T00:39:54;5.60;99.90
7399;DHT22;3740;50.700;7.184;2023-04-06T00:42:22;5.70;99.90
7399;DHT22;3740;50.700;7.184;2023-04-06T00:44:59;5.50;99.90
7399;DHT22;3740;50.700;7.184;2023-04-06T00:47:25;5.30;99.90
7399;DHT22;3740;50.700;7.184;2023-04-06T00:49:52;5.20;99.90
7399;DHT22;3740;50.700;7.184;2023-04-06T00:52:18;5.00;99.90
7399;DHT22;3740;50.700;7.184;2023-04-06T00:54:44;4.80;99.90
7399;DHT22;3740;50.700;7.184;2023-04-06T00:57:13;4.80;99.90
7399;DHT22;3740;50.700;7.184;2023-04-06T00:59:39;4.70;99.90
7399;DHT22;3740;50.700;7.184;2023-04-06T01:02:06;4.60;99.90
7399;DHT22;3740;50.700;7.184;2023-04-06T01:04:32;4.60;99.90
7399;DHT22;3740;50.700;7.184;2023-04-06T01:06:58;4.60;99.90
7399;DHT22;3740;50.700;7.184;2023-04-06T01:09:23;4.60;99.90
7399;DHT22;3740;50.700;7.184;2023-04-06T01:11:49;4.80;99.90
7399;DHT22;3740;50.700;7.184;2023-04-06T01:14:15;5.00;99.90
7399;DHT22;3740;50.700;7.184;2023-04-06T01:16:41;5.10;99.90
7399;DHT22;3740;50.700;7.184;2023-04-06T01:19:08;5.20;99.90
7399;DHT22;3740;50.700;7.184;2023-04-06T01:21:35;5.20;99.90
7399;DHT22;3740;50.700;7.184;2023-04-06T01:24:01;4.90;99.90
7399;DHT22;3740;50.700;7.184;2023-04-06T01:26:26;4.80;99.90
7399;DHT22;3740;50.700;7.184;2023-04-06T01:28:52;4.70;99.90
7399;DHT22;3740;50.700;7.184;2023-04-06T01:31:18;4.50;99.90
7399;DHT22;3740;50.700;7.184;2023-04-06T01:33:43;4.50;99.90
7399;DHT22;3740;50.700;7.184;2023-04-06T01:36:09;4.50;99.90
7399;DHT22;3740;50.700;7.184;2023-04-06T01:38:35;4.50;99.90
7399;DHT22;3740;50.700;7.184;2023-04-06T01:41:00;4.40;99.90
7399;DHT22;3740;50.700;7.184;2023-04-06T01:43:26;4.40;99.90
7399;DHT22;3740;50.700;7.184;2023-04-06T01:45:52;4.30;99.90
7399;DHT22;3740;50.700;7.184;2023-04-06T01:48:17;4.30;99.90
7399;DHT22;3740;50.700;7.184;2023-04-06T01:50:43;4.20;99.90
7399;DHT22;3740;50.700;7.184;2023-04-06T01:53:08;4.40;99.90
7399;DHT22;3740;50.700;7.184;2023-04-06T01:55:34;4.70;99.90
7399;DHT22;3740;50.700;7.184;2023-04-06T01:57:59;4.90;99.90
7399;DHT22;3740;50.700;7.184;2023-04-06T02:00:25;5.00;99.90
7399;DHT22;3740;50.700;7.184;2023-04-06T02:02:50;4.90;99.90
7399;DHT22;3740;50.700;7.184;2023-04-06T02:05:16;4.80;99.90
7399;DHT22;3740;50.700;7.184;2023-04-06T02:07:42;4.70;99.90
7399;DHT22;3740;50.700;7.184;2023-04-06T02:10:11;4.50;99.90
7399;DHT22;3740;50.700;7.184;2023-04-06T02:12:37;4.30;99.90
7399;DHT22;3740;50.700;7.184;2023-04-06T02:15:03;4.30;99.90
7399;DHT22;3740;50.700;7.184;2023-04-06T02:17:29;4.20;99.90
7399;DHT22;3740;50.700;7.184;2023-04-06T02:19:54;4.00;99.90
7399;DHT22;3740;50.700;7.184;2023-04-06T02:22:20;4.00;99.90
7399;DHT22;3740;50.700;7.184;2023-04-06T02:24:45;4.00;99.90
7399;DHT22;3740;50.700;7.184;2023-04-06T02:27:13;4.10;99.90
7399;DHT22;3740;50.700;7.184;2023-04-06T02:29:39;4.20;99.90
7399;DHT22;3740;50.700;7.184;2023-04-06T02:32:04;4.30;99.90
7399;DHT22;3740;50.700;7.184;2023-04-06T02:34:30;4.60;99.90
7399;DHT22;3740;50.700;7.184;2023-04-06T02:36:56;4.90;99.90
7399;DHT22;3740;50.700;7.184;2023-04-06T02:39:21;5.10;99.90
7399;DHT22;3740;50.700;7.184;2023-04-06T02:41:48;5.20;99.90
7399;DHT22;3740;50.700;7.184;2023-04-06T02:44:13;5.00;99.90
7399;DHT22;3740;50.700;7.184;2023-04-06T02:46:39;4.70;99.90
7399;DHT22;3740;50.700;7.184;2023-04-06T02:49:04;4.50;99.90
7399;DHT22;3740;50.700;7.184;2023-04-06T02:51:30;4.30;99.90
7399;DHT22;3740;50.700;7.184;2023-04-06T02:53:55;4.20;99.90
7399;DHT22;3740;50.700;7.184;2023-04-06T02:56:21;4.20;99.90
7399;DHT22;3740;50.700;7.184;2023-04-06T02:58:47;4.10;99.90
7399;DHT22;3740;50.700;7.184;2023-04-06T03:01:12;4.10;99.90
7399;DHT22;3740;50.700;7.184;2023-04-06T03:03:38;4.10;99.90
7399;DHT22;3740;50.700;7.184;2023-04-06T03:06:04;4.10;99.90
7399;DHT22;3740;50.700;7.184;2023-04-06T03:08:29;4.10;99.90
7399;DHT22;3740;50.700;7.184;2023-04-06T03:10:55;4.10;99.90
7399;DHT22;3740;50.700;7.184;2023-04-06T03:13:21;4.20;99.90
7399;DHT22;3740;50.700;7.184;2023-04-06T03:15:46;4.20;99.90
7399;DHT22;3740;50.700;7.184;2023-04-06T03:18:12;4.40;99.90
7399;DHT22;3740;50.700;7.184;2023-04-06T03:20:38;4.60;99.90
7399;DHT22;3740;50.700;7.184;2023-04-06T03:23:03;4.70;99.90
7399;DHT22;3740;50.700;7.184;2023-04-06T03:25:29;4.80;99.90
7399;DHT22;3740;50.700;7.184;2023-04-06T03:27:55;4.70;99.90
7399;DHT22;3740;50.700;7.184;2023-04-06T03:30:21;4.60;99.90
7399;DHT22;3740;50.700;7.184;2023-04-06T03:32:46;4.50;99.90
7399;DHT22;3740;50.700;7.184;2023-04-06T03:35:12;4.40;99.90
7399;DHT22;3740;50.700;7.184;2023-04-06T03:37:38;4.30;99.90
7399;DHT22;3740;50.700;7.184;2023-04-06T03:40:04;4.30;99.90
7399;DHT22;3740;50.700;7.184;2023-04-06T03:42:30;4.40;99.90
7399;DHT22;3740;50.700;7.184;2023-04-06T03:44:58;4.40;99.90
7399;DHT22;3740;50.700;7.184;2023-04-06T03:47:23;4.30;99.90
7399;DHT22;3740;50.700;7.184;2023-04-06T03:49:49;4.20;99.90
7399;DHT22;3740;50.700;7.184;2023-04-06T03:52:14;4.00;99.90
7399;DHT22;3740;50.700;7.184;2023-04-06T03:54:40;4.00;99.90
7399;DHT22;3740;50.700;7.184;2023-04-06T03:57:05;3.90;99.90
7399;DHT22;3740;50.700;7.184;2023-04-06T03:59:31;3.90;99.90
7399;DHT22;3740;50.700;7.184;2023-04-06T04:01:56;4.10;99.90
7399;DHT22;3740;50.700;7.184;2023-04-06T04:04:22;4.30;99.90
7399;DHT22;3740;50.700;7.184;2023-04-06T04:06:47;4.50;99.90
7399;DHT22;3740;50.700;7.184;2023-04-06T04:09:13;4.70;99.90
7399;DHT22;3740;50.700;7.184;2023-04-06T04:11:38;4.70;99.90
7399;DHT22;3740;50.700;7.184;2023-04-06T04:14:04;4.60;99.90
7399;DHT22;3740;50.700;7.184;2023-04-06T04:16:30;4.50;99.90
7399;DHT22;3740;50.700;7.184;2023-04-06T04:18:55;4.40;99.90
7399;DHT22;3740;50.700;7.184;2023-04-06T04:21:23;4.50;99.90
7399;DHT22;3740;50.700;7.184;2023-04-06T04:23:48;4.30;99.90
7399;DHT22;3740;50.700;7.184;2023-04-06T04:26:14;4.10;99.90
7399;DHT22;3740;50.700;7.184;2023-04-06T04:28:40;4.10;99.90
7399;DHT22;3740;50.700;7.184;2023-04-06T04:31:06;4.00;99.90
7399;DHT22;3740;50.700;7.184;2023-04-06T04:33:31;3.90;99.90
7399;DHT22;3740;50.700;7.184;2023-04-06T04:35:57;3.90;99.90
7399;DHT22;3740;50.700;7.184;2023-04-06T04:38:22;4.00;99.90
7399;DHT22;3740;50.700;7.184;2023-04-06T04:40:48;4.10;99.90
7399;DHT22;3740;50.700;7.184;2023-04-06T04:43:13;4.40;99.90
7399;DHT22;3740;50.700;7.184;2023-04-06T04:45:39;4.60;99.90
7399;DHT22;3740;50.700;7.184;2023-04-06T04:48:05;4.70;99.90
7399;DHT22;3740;50.700;7.184;2023-04-06T04:50:31;4.70;99.90
7399;DHT22;3740;50.700;7.184;2023-04-06T04:52:57;4.60;99.90
7399;DHT22;3740;50.700;7.184;2023-04-06T04:55:22;4.60;99.90
7399;DHT22;3740;50.700;7.184;2023-04-06T04:57:48;4.40;99.90
7399;DHT22;3740;50.700;7.184;2023-04-06T05:00:14;4.40;99.90
7399;DHT22;3740;50.700;7.184;2023-04-06T05:02:39;4.30;99.90
7399;DHT22;3740;50.700;7.184;2023-04-06T05:05:05;4.20;99.90
7399;DHT22;3740;50.700;7.184;2023-04-06T05:07:31;4.20;99.90
7399;DHT22;3740;50.700;7.184;2023-04-06T05:09:56;4.20;99.90
7399;DHT22;3740;50.700;7.184;2023-04-06T05:12:22;4.20;99.90
7399;DHT22;3740;50.700;7.184;2023-04-06T05:14:48;4.20;99.90
7399;DHT22;3740;50.700;7.184;2023-04-06T05:17:13;4.10;99.90
7399;DHT22;3740;50.700;7.184;2023-04-06T05:19:39;4.10;99.90
7399;DHT22;3740;50.700;7.184;2023-04-06T05:22:04;4.30;99.90
7399;DHT22;3740;50.700;7.184;2023-04-06T05:24:30;4.50;99.90
7399;DHT22;3740;50.700;7.184;2023-04-06T05:26:55;4.60;99.90
7399;DHT22;3740;50.700;7.184;2023-04-06T05:29:21;4.60;99.90
7399;DHT22;3740;50.700;7.184;2023-04-06T05:31:47;4.60;99.90
7399;DHT22;3740;50.700;7.184;2023-04-06T05:34:12;4.30;99.90
7399;DHT22;3740;50.700;7.184;2023-04-06T05:36:38;4.20;99.90
7399;DHT22;3740;50.700;7.184;2023-04-06T05:39:05;4.10;99.90
7399;DHT22;3740;50.700;7.184;2023-04-06T05:41:31;4.10;99.90
7399;DHT22;3740;50.700;7.184;2023-04-06T05:43:57;4.10;99.90
7399;DHT22;3740;50.700;7.184;2023-04-06T05:46:22;4.00;99.90
7399;DHT22;3740;50.700;7.184;2023-04-06T05:48:48;3.80;99.90
7399;DHT22;3740;50.700;7.184;2023-04-06T05:51:14;3.90;99.90
7399;DHT22;3740;50.700;7.184;2023-04-06T05:53:40;3.90;99.90
7399;DHT22;3740;50.700;7.184;2023-04-06T05:56:05;3.90;99.90
7399;DHT22;3740;50.700;7.184;2023-04-06T05:58:31;4.00;99.90
7399;DHT22;3740;50.700;7.184;2023-04-06T06:00:58;4.10;99.90
7399;DHT22;3740;50.700;7.184;2023-04-06T06:03:24;4.10;99.90
7399;DHT22;3740;50.700;7.184;2023-04-06T06:05:49;4.20;99.90
7399;DHT22;3740;50.700;7.184;2023-04-06T06:08:15;4.30;99.90
7399;DHT22;3740;50.700;7.184;2023-04-06T06:10:41;4.40;99.90
7399;DHT22;3740;50.700;7.184;2023-04-06T06:13:06;4.20;99.90
7399;DHT22;3740;50.700;7.184;2023-04-06T06:15:32;4.30;99.90
7399;DHT22;3740;50.700;7.184;2023-04-06T06:17:58;4.40;99.90
7399;DHT22;3740;50.700;7.184;2023-04-06T06:20:23;4.50;99.90
7399;DHT22;3740;50.700;7.184;2023-04-06T06:22:49;4.60;99.90
7399;DHT22;3740;50.700;7.184;2023-04-06T06:25:14;4.60;99.90
7399;DHT22;3740;50.700;7.184;2023-04-06T06:27:41;4.70;99.90
7399;DHT22;3740;50.700;7.184;2023-04-06T06:30:07;4.60;99.90
7399;DHT22;3740;50.700;7.184;2023-04-06T06:32:33;4.70;99.90
7399;DHT22;3740;50.700;7.184;2023-04-06T06:34:59;5.00;99.90
7399;DHT22;3740;50.700;7.184;2023-04-06T06:37:24;5.20;99.90
7399;DHT22;3740;50.700;7.184;2023-04-06T06:39:50;5.40;99.90
7399;DHT22;3740;50.700;7.184;2023-04-06T06:42:15;5.60;99.90
7399;DHT22;3740;50.700;7.184;2023-04-06T06:44:41;5.60;99.90
7399;DHT22;3740;50.700;7.184;2023-04-06T06:47:06;5.70;99.90
7399;DHT22;3740;50.700;7.184;2023-04-06T06:49:32;5.60;99.90
7399;DHT22;3740;50.700;7.184;2023-04-06T06:51:57;5.70;99.90
7399;DHT22;3740;50.700;7.184;2023-04-06T06:54:23;5.70;99.90
7399;DHT22;3740;50.700;7.184;2023-04-06T06:56:48;5.70;99.90
7399;DHT22;3740;50.700;7.184;2023-04-06T06:59:14;5.70;99.90
7399;DHT22;3740;50.700;7.184;2023-04-06T07:01:41;5.80;99.90
7399;DHT22;3740;50.700;7.184;2023-04-06T07:04:06;5.90;99.90
7399;DHT22;3740;50.700;7.184;2023-04-06T07:06:35;5.90;99.90
7399;DHT22;3740;50.700;7.184;2023-04-06T07:09:01;5.90;99.90
7399;DHT22;3740;50.700;7.184;2023-04-06T07:11:28;6.00;99.90
7399;DHT22;3740;50.700;7.184;2023-04-06T07:13:54;5.90;99.90
7399;DHT22;3740;50.700;7.184;2023-04-06T07:16:19;5.80;99.90
7399;DHT22;3740;50.700;7.184;2023-04-06T07:18:45;5.80;99.90
7399;DHT22;3740;50.700;7.184;2023-04-06T07:21:11;6.00;99.90
7399;DHT22;3740;50.700;7.184;2023-04-06T07:23:37;6.10;99.90
7399;DHT22;3740;50.700;7.184;2023-04-06T07:26:02;6.30;99.90
7399;DHT22;3740;50.700;7.184;2023-04-06T07:28:28;6.40;99.90
7399;DHT22;3740;50.700;7.184;2023-04-06T07:30:53;6.50;99.90
7399;DHT22;3740;50.700;7.184;2023-04-06T07:33:20;6.50;99.90
7399;DHT22;3740;50.700;7.184;2023-04-06T07:35:45;6.60;99.90
7399;DHT22;3740;50.700;7.184;2023-04-06T07:38:11;6.60;99.90
7399;DHT22;3740;50.700;7.184;2023-04-06T07:40:36;6.70;99.90
7399;DHT22;3740;50.700;7.184;2023-04-06T07:43:03;6.80;99.90
7399;DHT22;3740;50.700;7.184;2023-04-06T07:45:28;6.80;99.90
7399;DHT22;3740;50.700;7.184;2023-04-06T07:47:54;7.00;99.90
7399;DHT22;3740;50.700;7.184;2023-04-06T07:50:20;7.10;99.90
7399;DHT22;3740;50.700;7.184;2023-04-06T07:52:45;7.30;99.90
7399;DHT22;3740;50.700;7.184;2023-04-06T07:55:11;7.50;99.90
7399;DHT22;3740;50.700;7.184;2023-04-06T07:57:37;7.60;99.90
7399;DHT22;3740;50.700;7.184;2023-04-06T08:00:03;7.70;99.90
7399;DHT22;3740;50.700;7.184;2023-04-06T08:02:30;7.90;99.90
7399;DHT22;3740;50.700;7.184;2023-04-06T08:04:56;8.00;99.90
7399;DHT22;3740;50.700;7.184;2023-04-06T08:07:22;8.20;99.90
7399;DHT22;3740;50.700;7.184;2023-04-06T08:09:47;8.50;99.90
7399;DHT22;3740;50.700;7.184;2023-04-06T08:12:13;8.70;99.60
7399;DHT22;3740;50.700;7.184;2023-04-06T08:14:39;8.80;99.20
7399;DHT22;3740;50.700;7.184;2023-04-06T08:17:05;9.00;99.10
7399;DHT22;3740;50.700;7.184;2023-04-06T08:19:30;9.00;98.70
7399;DHT22;3740;50.700;7.184;2023-04-06T08:21:56;9.00;98.20
7399;DHT22;3740;50.700;7.184;2023-04-06T08:24:21;9.00;98.60
7399;DHT22;3740;50.700;7.184;2023-04-06T08:26:47;9.10;98.50
7399;DHT22;3740;50.700;7.184;2023-04-06T08:29:12;9.20;98.70
7399;DHT22;3740;50.700;7.184;2023-04-06T08:31:38;9.20;98.60
7399;DHT22;3740;50.700;7.184;2023-04-06T08:34:04;9.30;97.80
7399;DHT22;3740;50.700;7.184;2023-04-06T08:36:31;9.40;97.70
7399;DHT22;3740;50.700;7.184;2023-04-06T08:38:59;9.40;97.40
7399;DHT22;3740;50.700;7.184;2023-04-06T08:41:25;9.40;97.60
7399;DHT22;3740;50.700;7.184;2023-04-06T08:46:17;9.60;97.80
7399;DHT22;3740;50.700;7.184;2023-04-06T08:48:43;9.80;97.70
7399;DHT22;3740;50.700;7.184;2023-04-06T08:51:10;9.90;97.10
7399;DHT22;3740;50.700;7.184;2023-04-06T08:53:36;10.00;96.70
7399;DHT22;3740;50.700;7.184;2023-04-06T08:56:04;10.00;96.00
7399;DHT22;3740;50.700;7.184;2023-04-06T08:58:37;10.00;96.50
7399;DHT22;3740;50.700;7.184;2023-04-06T09:01:07;10.10;96.70
7399;DHT22;3740;50.700;7.184;2023-04-06T09:03:38;10.20;96.60
7399;DHT22;3740;50.700;7.184;2023-04-06T09:06:05;10.30;96.40
7399;DHT22;3740;50.700;7.184;2023-04-06T09:08:33;10.40;96.70
7399;DHT22;3740;50.700;7.184;2023-04-06T09:11:01;10.60;96.30
7399;DHT22;3740;50.700;7.184;2023-04-06T09:13:26;10.60;96.40
7399;DHT22;3740;50.700;7.184;2023-04-06T09:15:59;10.80;96.10
7399;DHT22;3740;50.700;7.184;2023-04-06T09:18:32;10.90;96.60
7399;DHT22;3740;50.700;7.184;2023-04-06T09:21:03;11.00;96.00
7399;DHT22;3740;50.700;7.184;2023-04-06T09:23:29;11.20;95.90
7399;DHT22;3740;50.700;7.184;2023-04-06T09:26:09;11.40;95.70
7399;DHT22;3740;50.700;7.184;2023-04-06T09:28:50;11.60;95.80
7399;DHT22;3740;50.700;7.184;2023-04-06T09:31:24;11.80;95.20
7399;DHT22;3740;50.700;7.184;2023-04-06T09:33:51;12.10;94.20
7399;DHT22;3740;50.700;7.184;2023-04-06T09:36:17;12.10;93.90
7399;DHT22;3740;50.700;7.184;2023-04-06T09:38:54;12.20;93.90
7399;DHT22;3740;50.700;7.184;2023-04-06T09:41:27;12.40;94.00
7399;DHT22;3740;50.700;7.184;2023-04-06T09:44:10;12.60;94.50
7399;DHT22;3740;50.700;7.184;2023-04-06T09:46:41;12.80;92.80
7399;DHT22;3740;50.700;7.184;2023-04-06T09:49:08;12.80;92.40
7399;DHT22;3740;50.700;7.184;2023-04-06T09:51:45;12.90;92.80
7399;DHT22;3740;50.700;7.184;2023-04-06T09:54:22;13.10;93.10
7399;DHT22;3740;50.700;7.184;2023-04-06T09:56:56;13.30;91.60
7399;DHT22;3740;50.700;7.184;2023-04-06T10:01:51;13.60;90.70
7399;DHT22;3740;50.700;7.184;2023-04-06T10:04:43;13.60;88.70
7399;DHT22;3740;50.700;7.184;2023-04-06T10:07:12;13.70;89.40
7399;DHT22;3740;50.700;7.184;2023-04-06T10:09:38;13.50;89.40
7399;DHT22;3740;50.700;7.184;2023-04-06T10:12:06;13.60;90.20
7399;DHT22;3740;50.700;7.184;2023-04-06T10:14:35;13.60;85.70
7399;DHT22;3740;50.700;7.184;2023-04-06T10:17:04;13.60;87.40
7399;DHT22;3740;50.700;7.184;2023-04-06T10:19:59;13.70;83.30
7399;DHT22;3740;50.700;7.184;2023-04-06T10:22:31;13.70;81.90
7399;DHT22;3740;50.700;7.184;2023-04-06T10:24:59;13.80;81.10
7399;DHT22;3740;50.700;7.184;2023-04-06T10:27:29;13.80;79.60
7399;DHT22;3740;50.700;7.184;2023-04-06T10:30:02;14.00;79.90
7399;DHT22;3740;50.700;7.184;2023-04-06T10:32:38;14.00;77.60
7399;DHT22;3740;50.700;7.184;2023-04-06T10:35:08;14.20;76.60
7399;DHT22;3740;50.700;7.184;2023-04-06T10:37:47;14.20;75.00
7399;DHT22;3740;50.700;7.184;2023-04-06T10:40:24;14.30;73.70
7399;DHT22;3740;50.700;7.184;2023-04-06T10:42:54;14.50;72.70
7399;DHT22;3740;50.700;7.184;2023-04-06T10:45:22;15.00;71.10
7399;DHT22;3740;50.700;7.184;2023-04-06T10:47:48;15.30;69.10
7399;DHT22;3740;50.700;7.184;2023-04-06T10:50:15;15.30;67.90
7399;DHT22;3740;50.700;7.184;2023-04-06T10:52:41;15.40;66.30
7399;DHT22;3740;50.700;7.184;2023-04-06T10:55:09;15.10;65.20
7399;DHT22;3740;50.700;7.184;2023-04-06T10:57:38;15.00;65.70
7399;DHT22;3740;50.700;7.184;2023-04-06T11:00:07;14.80;66.80
7399;DHT22;3740;50.700;7.184;2023-04-06T11:02:34;14.60;68.00
7399;DHT22;3740;50.700;7.184;2023-04-06T11:05:00;14.30;69.30
7399;DHT22;3740;50.700;7.184;2023-04-06T11:07:27;14.20;67.00
7399;DHT22;3740;50.700;7.184;2023-04-06T11:09:54;14.20;69.00
7399;DHT22;3740;50.700;7.184;2023-04-06T11:12:29;14.50;67.90
7399;DHT22;3740;50.700;7.184;2023-04-06T11:14:57;15.00;67.50
7399;DHT22;3740;50.700;7.184;2023-04-06T11:17:32;15.10;65.60
7399;DHT22;3740;50.700;7.184;2023-04-06T11:19:58;15.10;64.70
7399;DHT22;3740;50.700;7.184;2023-04-06T11:22:25;15.10;63.90
7399;DHT22;3740;50.700;7.184;2023-04-06T11:24:51;15.00;64.50
7399;DHT22;3740;50.700;7.184;2023-04-06T11:27:18;15.00;64.10
7399;DHT22;3740;50.700;7.184;2023-04-06T11:29:44;15.00;63.50
7399;DHT22;3740;50.700;7.184;2023-04-06T11:32:20;14.80;62.40
7399;DHT22;3740;50.700;7.184;2023-04-06T11:34:47;14.40;62.90
7399;DHT22;3740;50.700;7.184;2023-04-06T11:37:13;14.30;65.40
7399;DHT22;3740;50.700;7.184;2023-04-06T11:39:43;14.50;68.20
7399;DHT22;3740;50.700;7.184;2023-04-06T11:42:09;14.40;66.10
7399;DHT22;3740;50.700;7.184;2023-04-06T11:44:39;14.40;67.20
7399;DHT22;3740;50.700;7.184;2023-04-06T11:47:09;14.40;67.50
7399;DHT22;3740;50.700;7.184;2023-04-06T11:49:39;14.20;65.40
7399;DHT22;3740;50.700;7.184;2023-04-06T11:52:26;14.30;65.90
7399;DHT22;3740;50.700;7.184;2023-04-06T11:54:54;14.50;64.60
7399;DHT22;3740;50.700;7.184;2023-04-06T11:57:22;14.60;66.10
7399;DHT22;3740;50.700;7.184;2023-04-06T11:59:51;14.90;66.80
7399;DHT22;3740;50.700;7.184;2023-04-06T12:02:18;15.00;66.40
7399;DHT22;3740;50.700;7.184;2023-04-06T12:04:44;15.10;65.10
7399;DHT22;3740;50.700;7.184;2023-04-06T12:07:10;15.10;63.50
7399;DHT22;3740;50.700;7.184;2023-04-06T12:09:35;15.30;61.50
7399;DHT22;3740;50.700;7.184;2023-04-06T12:12:02;15.40;62.10
7399;DHT22;3740;50.700;7.184;2023-04-06T12:14:28;15.70;62.10
7399;DHT22;3740;50.700;7.184;2023-04-06T12:16:56;15.70;61.50
7399;DHT22;3740;50.700;7.184;2023-04-06T12:19:22;15.60;61.10
7399;DHT22;3740;50.700;7.184;2023-04-06T12:21:51;15.30;61.70
7399;DHT22;3740;50.700;7.184;2023-04-06T12:24:17;15.20;61.60
7399;DHT22;3740;50.700;7.184;2023-04-06T12:26:43;15.30;61.50
7399;DHT22;3740;50.700;7.184;2023-04-06T12:29:08;15.50;62.80
7399;DHT22;3740;50.700;7.184;2023-04-06T12:31:37;15.90;61.20
7399;DHT22;3740;50.700;7.184;2023-04-06T12:34:08;16.30;61.50
7399;DHT22;3740;50.700;7.184;2023-04-06T12:36:33;16.50;60.00
7399;DHT22;3740;50.700;7.184;2023-04-06T12:38:59;16.70;60.50
7399;DHT22;3740;50.700;7.184;2023-04-06T12:41:26;16.40;59.60
7399;DHT22;3740;50.700;7.184;2023-04-06T12:43:51;16.50;59.30
7399;DHT22;3740;50.700;7.184;2023-04-06T12:46:17;16.30;58.40
7399;DHT22;3740;50.700;7.184;2023-04-06T12:48:43;16.40;57.60
7399;DHT22;3740;50.700;7.184;2023-04-06T12:51:08;16.20;57.60
7399;DHT22;3740;50.700;7.184;2023-04-06T12:53:34;16.30;57.90
7399;DHT22;3740;50.700;7.184;2023-04-06T12:56:00;16.40;58.50
7399;DHT22;3740;50.700;7.184;2023-04-06T12:58:26;16.30;58.10
7399;DHT22;3740;50.700;7.184;2023-04-06T13:00:53;15.90;58.90
7399;DHT22;3740;50.700;7.184;2023-04-06T13:03:20;15.60;59.10
7399;DHT22;3740;50.700;7.184;2023-04-06T13:05:48;15.40;59.40
7399;DHT22;3740;50.700;7.184;2023-04-06T13:08:14;15.30;59.40
7399;DHT22;3740;50.700;7.184;2023-04-06T13:10:44;15.40;60.60
7399;DHT22;3740;50.700;7.184;2023-04-06T13:13:11;15.50;60.70
7399;DHT22;3740;50.700;7.184;2023-04-06T13:15:37;15.50;62.00
7399;DHT22;3740;50.700;7.184;2023-04-06T13:18:03;15.50;61.70
7399;DHT22;3740;50.700;7.184;2023-04-06T13:20:28;15.30;62.50
7399;DHT22;3740;50.700;7.184;2023-04-06T13:22:54;15.00;67.30
7399;DHT22;3740;50.700;7.184;2023-04-06T13:25:19;14.90;65.40
7399;DHT22;3740;50.700;7.184;2023-04-06T13:27:45;14.60;67.80
7399;DHT22;3740;50.700;7.184;2023-04-06T13:30:13;14.50;68.40
7399;DHT22;3740;50.700;7.184;2023-04-06T13:32:38;14.20;68.00
7399;DHT22;3740;50.700;7.184;2023-04-06T13:35:04;14.10;68.50
7399;DHT22;3740;50.700;7.184;2023-04-06T13:37:30;14.00;69.10
7399;DHT22;3740;50.700;7.184;2023-04-06T13:39:56;14.00;69.50
7399;DHT22;3740;50.700;7.184;2023-04-06T13:42:21;13.90;69.00
7399;DHT22;3740;50.700;7.184;2023-04-06T13:44:47;13.60;71.30
7399;DHT22;3740;50.700;7.184;2023-04-06T13:47:13;13.50;73.50
7399;DHT22;3740;50.700;7.184;2023-04-06T13:49:38;13.40;72.10
7399;DHT22;3740;50.700;7.184;2023-04-06T13:52:04;13.30;72.90
7399;DHT22;3740;50.700;7.184;2023-04-06T13:54:30;13.30;74.50
7399;DHT22;3740;50.700;7.184;2023-04-06T13:56:55;13.30;75.30
7399;DHT22;3740;50.700;7.184;2023-04-06T13:59:21;13.30;76.30
7399;DHT22;3740;50.700;7.184;2023-04-06T14:01:47;13.30;78.30
7399;DHT22;3740;50.700;7.184;2023-04-06T14:04:13;13.20;77.70
7399;DHT22;3740;50.700;7.184;2023-04-06T14:06:38;13.10;79.70
7399;DHT22;3740;50.700;7.184;2023-04-06T14:09:04;13.20;78.30
7399;DHT22;3740;50.700;7.184;2023-04-06T14:11:30;13.10;78.00
7399;DHT22;3740;50.700;7.184;2023-04-06T14:13:55;13.20;79.50
7399;DHT22;3740;50.700;7.184;2023-04-06T14:16:23;13.20;80.90
7399;DHT22;3740;50.700;7.184;2023-04-06T14:18:49;13.30;81.90
7399;DHT22;3740;50.700;7.184;2023-04-06T14:21:14;13.30;82.70
7399;DHT22;3740;50.700;7.184;2023-04-06T14:23:40;13.40;80.80
7399;DHT22;3740;50.700;7.184;2023-04-06T14:26:07;13.30;80.30
7399;DHT22;3740;50.700;7.184;2023-04-06T14:28:34;13.40;80.70
7399;DHT22;3740;50.700;7.184;2023-04-06T14:31:01;13.30;82.50
7399;DHT22;3740;50.700;7.184;2023-04-06T14:33:29;13.20;85.70
7399;DHT22;3740;50.700;7.184;2023-04-06T14:35:55;13.10;87.60
7399;DHT22;3740;50.700;7.184;2023-04-06T14:38:21;13.00;88.80
7399;DHT22;3740;50.700;7.184;2023-04-06T14:40:47;12.90;90.30
7399;DHT22;3740;50.700;7.184;2023-04-06T14:43:13;12.80;91.20
7399;DHT22;3740;50.700;7.184;2023-04-06T14:45:38;12.70;91.80
7399;DHT22;3740;50.700;7.184;2023-04-06T14:48:04;12.70;92.60
7399;DHT22;3740;50.700;7.184;2023-04-06T14:50:32;12.60;92.50
7399;DHT22;3740;50.700;7.184;2023-04-06T14:52:58;12.60;93.80
7399;DHT22;3740;50.700;7.184;2023-04-06T14:55:25;12.50;94.50
7399;DHT22;3740;50.700;7.184;2023-04-06T14:57:50;12.40;95.50
7399;DHT22;3740;50.700;7.184;2023-04-06T15:00:16;12.30;95.70
7399;DHT22;3740;50.700;7.184;2023-04-06T15:02:42;12.30;96.50
7399;DHT22;3740;50.700;7.184;2023-04-06T15:05:08;12.30;96.50
7399;DHT22;3740;50.700;7.184;2023-04-06T15:07:34;12.30;97.50
7399;DHT22;3740;50.700;7.184;2023-04-06T15:09:59;12.30;97.00
7399;DHT22;3740;50.700;7.184;2023-04-06T15:12:25;12.30;97.40
7399;DHT22;3740;50.700;7.184;2023-04-06T15:14:51;12.20;98.00
7399;DHT22;3740;50.700;7.184;2023-04-06T15:17:16;12.20;99.10
7399;DHT22;3740;50.700;7.184;2023-04-06T15:19:42;12.10;98.50
7399;DHT22;3740;50.700;7.184;2023-04-06T15:22:07;12.10;98.20
7399;DHT22;3740;50.700;7.184;2023-04-06T15:24:33;12.10;98.40
7399;DHT22;3740;50.700;7.184;2023-04-06T15:26:58;12.10;98.50
7399;DHT22;3740;50.700;7.184;2023-04-06T15:29:25;12.20;98.70
7399;DHT22;3740;50.700;7.184;2023-04-06T15:31:51;12.20;99.20
7399;DHT22;3740;50.700;7.184;2023-04-06T15:34:16;12.10;99.30
7399;DHT22;3740;50.700;7.184;2023-04-06T15:36:42;12.10;99.10
7399;DHT22;3740;50.700;7.184;2023-04-06T15:39:09;12.00;99.70
7399;DHT22;3740;50.700;7.184;2023-04-06T15:41:34;12.00;99.90
7399;DHT22;3740;50.700;7.184;2023-04-06T15:44:00;12.00;99.90
7399;DHT22;3740;50.700;7.184;2023-04-06T15:46:26;11.90;99.90
7399;DHT22;3740;50.700;7.184;2023-04-06T15:48:52;11.80;99.90
7399;DHT22;3740;50.700;7.184;2023-04-06T15:51:17;11.70;99.90
7399;DHT22;3740;50.700;7.184;2023-04-06T15:53:44;11.60;99.90
7399;DHT22;3740;50.700;7.184;2023-04-06T15:56:10;11.50;99.90
7399;DHT22;3740;50.700;7.184;2023-04-06T15:58:36;11.30;99.90
7399;DHT22;3740;50.700;7.184;2023-04-06T16:01:10;11.20;99.90
7399;DHT22;3740;50.700;7.184;2023-04-06T16:03:36;11.20;99.90
7399;DHT22;3740;50.700;7.184;2023-04-06T16:06:02;11.20;99.90
7399;DHT22;3740;50.700;7.184;2023-04-06T16:08:27;11.20;99.90
7399;DHT22;3740;50.700;7.184;2023-04-06T16:10:53;11.10;99.90